地図

経路データ

SID SEASON NUMBER BASIN SUBBASIN NAME ISO_TIME NATURE LAT LON WMO_WIND WMO_PRES WMO_AGENCY TRACK_TYPE DIST2LAND LANDFALL IFLAG USA_AGENCY USA_ATCF_ID USA_LAT USA_LON USA_RECORD USA_STATUS USA_WIND USA_PRES USA_SSHS USA_R34_NE USA_R34_SE USA_R34_SW USA_R34_NW USA_R50_NE USA_R50_SE USA_R50_SW USA_R50_NW USA_R64_NE USA_R64_SE USA_R64_SW USA_R64_NW USA_POCI USA_ROCI USA_RMW USA_EYE TOKYO_LAT TOKYO_LON TOKYO_GRADE TOKYO_WIND TOKYO_PRES TOKYO_R50_DIR TOKYO_R50_LONG TOKYO_R50_SHORT TOKYO_R30_DIR TOKYO_R30_LONG TOKYO_R30_SHORT TOKYO_LAND CMA_LAT CMA_LON CMA_CAT CMA_WIND CMA_PRES HKO_LAT HKO_LON HKO_CAT HKO_WIND HKO_PRES NEWDELHI_LAT NEWDELHI_LON NEWDELHI_GRADE NEWDELHI_WIND NEWDELHI_PRES NEWDELHI_CI NEWDELHI_DP NEWDELHI_POCI REUNION_LAT REUNION_LON REUNION_TYPE REUNION_WIND REUNION_PRES REUNION_TNUM REUNION_CI REUNION_RMW REUNION_R34_NE REUNION_R34_SE REUNION_R34_SW REUNION_R34_NW REUNION_R50_NE REUNION_R50_SE REUNION_R50_SW REUNION_R50_NW REUNION_R64_NE REUNION_R64_SE REUNION_R64_SW REUNION_R64_NW BOM_LAT BOM_LON BOM_TYPE BOM_WIND BOM_PRES BOM_TNUM BOM_CI BOM_RMW BOM_R34_NE BOM_R34_SE BOM_R34_SW BOM_R34_NW BOM_R50_NE BOM_R50_SE BOM_R50_SW BOM_R50_NW BOM_R64_NE BOM_R64_SE BOM_R64_SW BOM_R64_NW BOM_ROCI BOM_POCI BOM_EYE BOM_POS_METHOD BOM_PRES_METHOD NADI_LAT NADI_LON NADI_CAT NADI_WIND NADI_PRES WELLINGTON_LAT WELLINGTON_LON WELLINGTON_WIND WELLINGTON_PRES DS824_LAT DS824_LON DS824_STAGE DS824_WIND DS824_PRES TD9636_LAT TD9636_LON TD9636_STAGE TD9636_WIND TD9636_PRES TD9635_LAT TD9635_LON TD9635_WIND TD9635_PRES TD9635_ROCI NEUMANN_LAT NEUMANN_LON NEUMANN_CLASS NEUMANN_WIND NEUMANN_PRES MLC_LAT MLC_LON MLC_CLASS MLC_WIND MLC_PRES USA_GUST BOM_GUST BOM_GUST_PER REUNION_GUST REUNION_GUST_PER USA_SEAHGT USA_SEARAD_NE USA_SEARAD_SE USA_SEARAD_SW USA_SEARAD_NW STORM_SPEED STORM_DIR
1851256N26265 1851 14 NA GM NOT_NAMED 1851-09-12 12:00:00 TS 25.5000 -95.5000 main 169 166 _____________O -1 25.5000 -95.5000 TS 35 2 335
1851256N26265 1851 14 NA GM NOT_NAMED 1851-09-12 15:00:00 TS 25.5875 -95.5375 main 166 153 _____________P -1 25.5875 -95.5375 TS 35 2 335
1851256N26265 1851 14 NA GM NOT_NAMED 1851-09-12 18:00:00 TS 25.7000 -95.6000 main 153 141 _____________O -1 25.7000 -95.6000 TS 35 3 331
1851256N26265 1851 14 NA GM NOT_NAMED 1851-09-12 21:00:00 TS 25.8500 -95.7000 main 140 129 _____________P -1 25.8500 -95.7000 TS 37 4 329
1851256N26265 1851 14 NA GM NOT_NAMED 1851-09-13 00:00:00 TS 26.0000 -95.8000 main 129 120 _____________O -1 26.0000 -95.8000 TS 40 3 330
1851256N26265 1851 14 NA GM NOT_NAMED 1851-09-13 03:00:00 TS 26.1000 -95.8576 main 120 120 _____________P -1 26.1000 -95.8576 TS 42 2 335
1851256N26265 1851 14 NA GM NOT_NAMED 1851-09-13 06:00:00 TS 26.2000 -95.9000 main 121 121 _____________O -1 26.2000 -95.9000 TS 45 3 342
1851256N26265 1851 14 NA GM NOT_NAMED 1851-09-13 09:00:00 TS 26.3500 -95.9500 main 127 114 _____________P -1 26.3500 -95.9500 TS 45 3 344
1851256N26265 1851 14 NA GM NOT_NAMED 1851-09-13 12:00:00 TS 26.5000 -96.0000 main 123 123 _____________O -1 26.5000 -96.0000 TS 45 3 342
1851256N26265 1851 14 NA GM NOT_NAMED 1851-09-13 15:00:00 TS 26.6000 -96.0426 main 128 120 _____________P -1 26.6000 -96.0426 TS 45 2 335
1851256N26265 1851 14 NA GM NOT_NAMED 1851-09-13 18:00:00 TS 26.7000 -96.1000 main 126 121 _____________O -1 26.7000 -96.1000 TS 45 3 330
1851256N26265 1851 14 NA GM NOT_NAMED 1851-09-13 21:00:00 TS 26.8500 -96.1999 main 123 113 _____________P -1 26.8500 -96.1999 TS 45 4 330
1851256N26265 1851 14 NA GM NOT_NAMED 1851-09-14 00:00:00 TS 27.0000 -96.3000 main 113 99 _____________O -1 27.0000 -96.3000 TS 45 3 330
1851256N26265 1851 14 NA GM NOT_NAMED 1851-09-14 03:00:00 TS 27.1000 -96.3576 main 99 94 _____________P -1 27.1000 -96.3576 TS 45 2 335
1851256N26265 1851 14 NA GM NOT_NAMED 1851-09-14 06:00:00 TS 27.2000 -96.4000 main 94 89 _____________O -1 27.2000 -96.4000 TS 45 3 343
1851256N26265 1851 14 NA GM NOT_NAMED 1851-09-14 09:00:00 TS 27.3650 -96.4500 main 89 76 _____________P -1 27.3650 -96.4500 TS 45 3 344
1851256N26265 1851 14 NA GM NOT_NAMED 1851-09-14 12:00:00 TS 27.5000 -96.5000 main 76 76 _____________O -1 27.5000 -96.5000 TS 45 2 336
1851256N26265 1851 14 NA GM NOT_NAMED 1851-09-14 15:00:00 TS 27.5300 -96.5425 main 76 67 _____________P -1 27.5300 -96.5425 TS 45 1 270
1851256N26265 1851 14 NA GM NOT_NAMED 1851-09-14 18:00:00 TS 27.5000 -96.6000 main 67 59 _____________O -1 27.5000 -96.6000 TS 45 2 240
1851256N26265 1851 14 NA GM NOT_NAMED 1851-09-14 21:00:00 TS 27.4500 -96.7000 main 59 50 _____________P -1 27.4500 -96.7000 TS 45 2 240
1851256N26265 1851 14 NA GM NOT_NAMED 1851-09-15 00:00:00 TS 27.4000 -96.8000 main 50 40 _____________O -1 27.4000 -96.8000 TS 45 1 250
1851256N26265 1851 14 NA GM NOT_NAMED 1851-09-15 03:00:00 TS 27.4000 -96.8575 main 40 40 _____________P -1 27.4000 -96.8575 TS 45 1 270
1851256N26265 1851 14 NA GM NOT_NAMED 1851-09-15 06:00:00 TS 27.4000 -96.9000 main 40 40 _____________O -1 27.4000 -96.9000 TS 45 1 239
1851256N26265 1851 14 NA GM NOT_NAMED 1851-09-15 09:00:00 TS 27.3500 -96.9500 main 31 37 _____________P -1 27.3500 -96.9500 TS 45 1 220
1851256N26265 1851 14 NA GM NOT_NAMED 1851-09-15 12:00:00 TS 27.3000 -97.0000 main 37 37 _____________O -1 27.3000 -97.0000 TS 45 1 239
1851256N26265 1851 14 NA GM NOT_NAMED 1851-09-15 15:00:00 TS 27.3000 -97.0425 main 37 29 _____________P -1 27.3000 -97.0425 TS 45 1 270
1851256N26265 1851 14 NA GM NOT_NAMED 1851-09-15 18:00:00 TS 27.3000 -97.1000 main 29 19 _____________O -1 27.3000 -97.1000 TS 45 1 251
1851256N26265 1851 14 NA GM NOT_NAMED 1851-09-15 21:00:00 TS 27.2500 -97.2000 main 19 14 _____________P -1 27.2500 -97.2000 TS 42 2 240
1851256N26265 1851 14 NA GM NOT_NAMED 1851-09-16 00:00:00 TS 27.2000 -97.3000 main 14 14 _____________O -1 27.2000 -97.3000 TS 40 1 249
1851256N26265 1851 14 NA GM NOT_NAMED 1851-09-16 03:00:00 TS 27.2000 -97.3500 main 14 9 _____________P -1 27.2000 -97.3500 TS 37 1 270
1851256N26265 1851 14 NA GM NOT_NAMED 1851-09-16 06:00:00 TS 27.2000 -97.4000 main 9 0 _____________O -1 27.2000 -97.4000 TS 35 1 252
1851256N26265 1851 14 NA NA NOT_NAMED 1851-09-16 09:00:00 TS 27.1575 -97.5000 main 0 0 _____________P -1 27.1575 -97.5000 TS 35 2 240
1851256N26265 1851 14 NA NA NOT_NAMED 1851-09-16 12:00:00 TS 27.1000 -97.6000 main 0 0 _____________O -1 27.1000 -97.6000 TS 35 2 233
1851256N26265 1851 14 NA NA NOT_NAMED 1851-09-16 15:00:00 TS 27.0475 -97.6625 main 0 0 _____________P -1 27.0475 -97.6625 TS 32 1 220
1851256N26265 1851 14 NA NA NOT_NAMED 1851-09-16 18:00:00 TS 27.0000 -97.7000 main 0 _____________O -1 27.0000 -97.7000 TD 30 1 212

IBTrACS Databaseについて

本データベースは、米国NOAAが公開する1842年以降の世界の熱帯低気圧のベストトラックデータアーカイブInternational Best Track Archive for Climate Stewardship (IBTrACS)を、ウェブで閲覧しやすい形式に変換したものです。

最終更新日:2021-11-26